73TA weather

Reynolds Ranch Airport
Bayview, Texas, United States

Public forecast

Using degrees Fahrenheit for public forecast. Weather courtesy of forecast.io.

Closest aviation weather report (METAR) to Reynolds Ranch Airport

Closest report is Port Isabel Cameron County Airport, 2.4 nm (4.4 km) ENE. Retrieved 2019/10/14 01:53 UTC (30 minutes ago):

KPIL 140153Z AUTO 00000KT 10SM CLR 24/22 A2992 RMK AO2 SLP131 T02440222

Closest aviation forecast (TAF) to Reynolds Ranch Airport

Closest forecast is Valley International Airport, 14.9 nm (27.6 km) WNW. Retrieved 2019-10-14 00:22 UTC (2 hours ago):

TAF KHRL 132320Z 1400/1424 06004KT P6SM FEW050 SCT120 FM141200 VRB04KT P6SM FEW030 SCT250